sensor_id;sensor_type;location;lat;lon;timestamp;P1;durP1;ratioP1;P2;durP2;ratioP2
41755;SDS011;27435;48.480;9.258;2023-12-22T00:01:46;1.90;;;0.60;;
41755;SDS011;27435;48.480;9.258;2023-12-22T00:04:12;2.10;;;0.40;;
41755;SDS011;27435;48.480;9.258;2023-12-22T00:06:39;4.70;;;0.60;;
41755;SDS011;27435;48.480;9.258;2023-12-22T00:09:05;3.57;;;0.60;;
41755;SDS011;27435;48.480;9.258;2023-12-22T00:11:31;2.17;;;0.60;;
41755;SDS011;27435;48.480;9.258;2023-12-22T00:13:56;4.17;;;0.60;;
41755;SDS011;27435;48.480;9.258;2023-12-22T00:16:22;2.83;;;0.50;;
41755;SDS011;27435;48.480;9.258;2023-12-22T00:18:48;2.47;;;0.60;;
41755;SDS011;27435;48.480;9.258;2023-12-22T00:21:14;3.63;;;0.80;;
41755;SDS011;27435;48.480;9.258;2023-12-22T00:23:40;3.07;;;0.83;;
41755;SDS011;27435;48.480;9.258;2023-12-22T00:26:05;5.83;;;1.10;;
41755;SDS011;27435;48.480;9.258;2023-12-22T00:28:31;8.43;;;0.70;;
41755;SDS011;27435;48.480;9.258;2023-12-22T00:30:57;2.63;;;1.00;;
41755;SDS011;27435;48.480;9.258;2023-12-22T00:33:23;3.27;;;0.73;;
41755;SDS011;27435;48.480;9.258;2023-12-22T00:35:50;3.57;;;0.80;;
41755;SDS011;27435;48.480;9.258;2023-12-22T00:38:16;4.13;;;0.93;;
41755;SDS011;27435;48.480;9.258;2023-12-22T00:40:44;6.03;;;1.20;;
41755;SDS011;27435;48.480;9.258;2023-12-22T00:43:10;5.53;;;1.17;;
41755;SDS011;27435;48.480;9.258;2023-12-22T00:45:36;4.30;;;0.80;;
41755;SDS011;27435;48.480;9.258;2023-12-22T00:48:01;6.50;;;1.00;;
41755;SDS011;27435;48.480;9.258;2023-12-22T00:50:27;2.53;;;1.17;;
41755;SDS011;27435;48.480;9.258;2023-12-22T00:52:53;2.97;;;0.80;;
41755;SDS011;27435;48.480;9.258;2023-12-22T00:55:19;3.53;;;0.60;;
41755;SDS011;27435;48.480;9.258;2023-12-22T00:57:44;5.07;;;1.07;;
41755;SDS011;27435;48.480;9.258;2023-12-22T01:00:10;3.43;;;0.90;;
41755;SDS011;27435;48.480;9.258;2023-12-22T01:02:37;3.50;;;0.97;;
41755;SDS011;27435;48.480;9.258;2023-12-22T01:05:03;8.93;;;1.43;;
41755;SDS011;27435;48.480;9.258;2023-12-22T01:07:29;7.87;;;1.00;;
41755;SDS011;27435;48.480;9.258;2023-12-22T01:09:55;5.60;;;0.80;;
41755;SDS011;27435;48.480;9.258;2023-12-22T01:12:26;4.03;;;1.00;;
41755;SDS011;27435;48.480;9.258;2023-12-22T01:14:52;3.97;;;1.00;;
41755;SDS011;27435;48.480;9.258;2023-12-22T01:17:18;5.13;;;0.97;;
41755;SDS011;27435;48.480;9.258;2023-12-22T01:19:43;8.77;;;0.90;;
41755;SDS011;27435;48.480;9.258;2023-12-22T01:22:10;5.73;;;1.00;;
41755;SDS011;27435;48.480;9.258;2023-12-22T01:24:36;6.90;;;1.00;;
41755;SDS011;27435;48.480;9.258;2023-12-22T01:27:04;3.63;;;0.73;;
41755;SDS011;27435;48.480;9.258;2023-12-22T01:29:30;7.00;;;0.90;;
41755;SDS011;27435;48.480;9.258;2023-12-22T01:31:55;6.40;;;1.53;;
41755;SDS011;27435;48.480;9.258;2023-12-22T01:34:21;4.57;;;0.90;;
41755;SDS011;27435;48.480;9.258;2023-12-22T01:36:47;1.50;;;0.50;;
41755;SDS011;27435;48.480;9.258;2023-12-22T01:39:12;2.03;;;0.50;;
41755;SDS011;27435;48.480;9.258;2023-12-22T01:41:38;2.27;;;1.37;;
41755;SDS011;27435;48.480;9.258;2023-12-22T01:44:03;2.87;;;0.60;;
41755;SDS011;27435;48.480;9.258;2023-12-22T01:46:29;3.90;;;0.30;;
41755;SDS011;27435;48.480;9.258;2023-12-22T01:48:55;0.43;;;0.27;;
41755;SDS011;27435;48.480;9.258;2023-12-22T01:51:21;2.43;;;0.33;;
41755;SDS011;27435;48.480;9.258;2023-12-22T01:53:47;3.43;;;0.43;;
41755;SDS011;27435;48.480;9.258;2023-12-22T01:56:13;1.23;;;0.40;;
41755;SDS011;27435;48.480;9.258;2023-12-22T01:58:39;0.67;;;0.30;;
41755;SDS011;27435;48.480;9.258;2023-12-22T02:01:05;1.23;;;0.40;;
41755;SDS011;27435;48.480;9.258;2023-12-22T02:03:32;3.50;;;0.20;;
41755;SDS011;27435;48.480;9.258;2023-12-22T02:05:57;7.63;;;0.40;;
41755;SDS011;27435;48.480;9.258;2023-12-22T02:08:23;0.57;;;0.23;;
41755;SDS011;27435;48.480;9.258;2023-12-22T02:10:51;0.93;;;0.20;;
41755;SDS011;27435;48.480;9.258;2023-12-22T02:13:16;0.80;;;0.27;;
41755;SDS011;27435;48.480;9.258;2023-12-22T02:15:42;0.67;;;0.37;;
41755;SDS011;27435;48.480;9.258;2023-12-22T02:18:26;0.57;;;0.20;;
41755;SDS011;27435;48.480;9.258;2023-12-22T02:20:58;1.77;;;0.30;;
41755;SDS011;27435;48.480;9.258;2023-12-22T02:23:24;1.30;;;0.37;;
41755;SDS011;27435;48.480;9.258;2023-12-22T02:25:50;6.87;;;0.57;;
41755;SDS011;27435;48.480;9.258;2023-12-22T02:28:23;23.80;;;1.47;;
41755;SDS011;27435;48.480;9.258;2023-12-22T02:30:54;3.10;;;0.50;;
41755;SDS011;27435;48.480;9.258;2023-12-22T02:33:29;3.37;;;0.60;;
41755;SDS011;27435;48.480;9.258;2023-12-22T02:35:58;3.60;;;0.50;;
41755;SDS011;27435;48.480;9.258;2023-12-22T02:38:29;1.10;;;0.33;;
41755;SDS011;27435;48.480;9.258;2023-12-22T02:40:56;1.27;;;0.50;;
41755;SDS011;27435;48.480;9.258;2023-12-22T02:43:23;1.60;;;0.57;;
41755;SDS011;27435;48.480;9.258;2023-12-22T02:45:51;2.47;;;0.50;;
41755;SDS011;27435;48.480;9.258;2023-12-22T02:48:17;4.80;;;1.00;;
41755;SDS011;27435;48.480;9.258;2023-12-22T02:50:43;7.23;;;0.60;;
41755;SDS011;27435;48.480;9.258;2023-12-22T02:53:08;4.53;;;0.70;;
41755;SDS011;27435;48.480;9.258;2023-12-22T02:55:34;4.63;;;0.80;;
41755;SDS011;27435;48.480;9.258;2023-12-22T02:58:00;4.00;;;0.80;;
41755;SDS011;27435;48.480;9.258;2023-12-22T03:00:25;4.10;;;0.73;;
41755;SDS011;27435;48.480;9.258;2023-12-22T03:02:51;8.77;;;1.43;;
41755;SDS011;27435;48.480;9.258;2023-12-22T03:05:17;3.57;;;0.93;;
41755;SDS011;27435;48.480;9.258;2023-12-22T03:07:42;3.00;;;0.80;;
41755;SDS011;27435;48.480;9.258;2023-12-22T03:10:08;4.63;;;1.00;;
41755;SDS011;27435;48.480;9.258;2023-12-22T03:12:34;3.37;;;1.23;;
41755;SDS011;27435;48.480;9.258;2023-12-22T03:14:59;5.40;;;0.70;;
41755;SDS011;27435;48.480;9.258;2023-12-22T03:17:25;4.80;;;1.00;;
41755;SDS011;27435;48.480;9.258;2023-12-22T03:19:50;3.80;;;0.50;;
41755;SDS011;27435;48.480;9.258;2023-12-22T03:22:16;1.27;;;0.60;;
41755;SDS011;27435;48.480;9.258;2023-12-22T03:24:43;4.23;;;0.90;;
41755;SDS011;27435;48.480;9.258;2023-12-22T03:27:09;5.93;;;0.57;;
41755;SDS011;27435;48.480;9.258;2023-12-22T03:29:35;2.00;;;0.50;;
41755;SDS011;27435;48.480;9.258;2023-12-22T03:32:00;4.70;;;0.87;;
41755;SDS011;27435;48.480;9.258;2023-12-22T03:34:26;3.60;;;0.70;;
41755;SDS011;27435;48.480;9.258;2023-12-22T03:36:51;3.07;;;0.83;;
41755;SDS011;27435;48.480;9.258;2023-12-22T03:39:17;4.30;;;0.70;;
41755;SDS011;27435;48.480;9.258;2023-12-22T03:41:43;1.77;;;0.70;;
41755;SDS011;27435;48.480;9.258;2023-12-22T03:44:09;6.53;;;1.00;;
41755;SDS011;27435;48.480;9.258;2023-12-22T03:46:34;0.43;;;0.20;;
41755;SDS011;27435;48.480;9.258;2023-12-22T03:49:00;2.13;;;0.50;;
41755;SDS011;27435;48.480;9.258;2023-12-22T03:51:25;4.03;;;0.73;;
41755;SDS011;27435;48.480;9.258;2023-12-22T03:53:51;1.50;;;0.50;;
41755;SDS011;27435;48.480;9.258;2023-12-22T03:56:17;1.43;;;0.50;;
41755;SDS011;27435;48.480;9.258;2023-12-22T03:58:44;0.93;;;0.37;;
41755;SDS011;27435;48.480;9.258;2023-12-22T04:01:13;1.03;;;0.30;;
41755;SDS011;27435;48.480;9.258;2023-12-22T04:03:39;3.00;;;0.50;;
41755;SDS011;27435;48.480;9.258;2023-12-22T04:06:05;3.60;;;0.30;;
41755;SDS011;27435;48.480;9.258;2023-12-22T04:08:31;1.63;;;0.40;;
41755;SDS011;27435;48.480;9.258;2023-12-22T04:10:56;3.03;;;0.50;;
41755;SDS011;27435;48.480;9.258;2023-12-22T04:13:22;0.87;;;0.40;;
41755;SDS011;27435;48.480;9.258;2023-12-22T04:15:47;4.07;;;0.77;;
41755;SDS011;27435;48.480;9.258;2023-12-22T04:18:13;3.43;;;0.97;;
41755;SDS011;27435;48.480;9.258;2023-12-22T04:20:39;1.97;;;1.10;;
41755;SDS011;27435;48.480;9.258;2023-12-22T04:23:04;5.00;;;0.70;;
41755;SDS011;27435;48.480;9.258;2023-12-22T04:25:30;3.73;;;0.97;;
41755;SDS011;27435;48.480;9.258;2023-12-22T04:27:56;2.60;;;0.70;;
41755;SDS011;27435;48.480;9.258;2023-12-22T04:30:21;2.97;;;0.70;;
41755;SDS011;27435;48.480;9.258;2023-12-22T04:32:47;4.73;;;0.93;;
41755;SDS011;27435;48.480;9.258;2023-12-22T04:35:12;3.87;;;1.27;;
41755;SDS011;27435;48.480;9.258;2023-12-22T04:37:40;11.53;;;2.03;;
41755;SDS011;27435;48.480;9.258;2023-12-22T04:40:06;6.67;;;0.87;;
41755;SDS011;27435;48.480;9.258;2023-12-22T04:42:32;4.37;;;1.03;;
41755;SDS011;27435;48.480;9.258;2023-12-22T04:44:58;8.57;;;1.07;;
41755;SDS011;27435;48.480;9.258;2023-12-22T04:47:23;3.23;;;0.93;;
41755;SDS011;27435;48.480;9.258;2023-12-22T04:49:49;5.30;;;1.70;;
41755;SDS011;27435;48.480;9.258;2023-12-22T04:52:15;6.07;;;1.27;;
41755;SDS011;27435;48.480;9.258;2023-12-22T04:54:40;6.17;;;1.07;;
41755;SDS011;27435;48.480;9.258;2023-12-22T04:57:06;8.03;;;1.10;;
41755;SDS011;27435;48.480;9.258;2023-12-22T04:59:32;8.90;;;1.20;;
41755;SDS011;27435;48.480;9.258;2023-12-22T05:02:00;4.20;;;1.00;;
41755;SDS011;27435;48.480;9.258;2023-12-22T05:04:29;8.10;;;1.93;;
41755;SDS011;27435;48.480;9.258;2023-12-22T05:06:55;4.13;;;1.27;;
41755;SDS011;27435;48.480;9.258;2023-12-22T05:09:20;7.30;;;0.90;;
41755;SDS011;27435;48.480;9.258;2023-12-22T05:11:47;5.53;;;0.90;;
41755;SDS011;27435;48.480;9.258;2023-12-22T05:14:13;5.73;;;1.30;;
41755;SDS011;27435;48.480;9.258;2023-12-22T05:16:38;8.47;;;1.43;;
41755;SDS011;27435;48.480;9.258;2023-12-22T05:19:04;7.37;;;0.93;;
41755;SDS011;27435;48.480;9.258;2023-12-22T05:21:29;2.93;;;0.90;;
41755;SDS011;27435;48.480;9.258;2023-12-22T05:23:55;6.77;;;1.53;;
41755;SDS011;27435;48.480;9.258;2023-12-22T05:26:21;8.30;;;1.10;;
41755;SDS011;27435;48.480;9.258;2023-12-22T05:28:47;10.90;;;1.50;;
41755;SDS011;27435;48.480;9.258;2023-12-22T05:31:14;12.83;;;1.83;;
41755;SDS011;27435;48.480;9.258;2023-12-22T05:33:41;5.10;;;1.30;;
41755;SDS011;27435;48.480;9.258;2023-12-22T05:36:07;5.57;;;0.97;;
41755;SDS011;27435;48.480;9.258;2023-12-22T05:38:36;14.70;;;1.70;;
41755;SDS011;27435;48.480;9.258;2023-12-22T05:41:05;4.77;;;1.60;;
41755;SDS011;27435;48.480;9.258;2023-12-22T05:43:31;8.00;;;1.33;;
41755;SDS011;27435;48.480;9.258;2023-12-22T05:45:58;7.03;;;1.17;;
41755;SDS011;27435;48.480;9.258;2023-12-22T05:48:24;10.37;;;1.83;;
41755;SDS011;27435;48.480;9.258;2023-12-22T05:50:53;5.77;;;1.17;;
41755;SDS011;27435;48.480;9.258;2023-12-22T05:53:21;9.80;;;1.93;;
41755;SDS011;27435;48.480;9.258;2023-12-22T05:55:47;4.47;;;1.10;;
41755;SDS011;27435;48.480;9.258;2023-12-22T05:58:13;10.97;;;1.50;;
41755;SDS011;27435;48.480;9.258;2023-12-22T06:00:39;10.43;;;3.20;;
41755;SDS011;27435;48.480;9.258;2023-12-22T06:03:05;7.30;;;2.90;;
41755;SDS011;27435;48.480;9.258;2023-12-22T06:05:30;10.63;;;1.40;;
41755;SDS011;27435;48.480;9.258;2023-12-22T06:07:56;9.30;;;2.33;;
41755;SDS011;27435;48.480;9.258;2023-12-22T06:10:22;5.63;;;1.70;;
41755;SDS011;27435;48.480;9.258;2023-12-22T06:12:47;6.40;;;2.13;;
41755;SDS011;27435;48.480;9.258;2023-12-22T06:15:13;14.13;;;2.07;;
41755;SDS011;27435;48.480;9.258;2023-12-22T06:17:39;6.83;;;1.80;;
41755;SDS011;27435;48.480;9.258;2023-12-22T06:20:04;16.47;;;2.33;;
41755;SDS011;27435;48.480;9.258;2023-12-22T06:22:30;8.23;;;1.40;;
41755;SDS011;27435;48.480;9.258;2023-12-22T06:24:57;11.83;;;2.20;;
41755;SDS011;27435;48.480;9.258;2023-12-22T06:27:28;12.27;;;1.10;;
41755;SDS011;27435;48.480;9.258;2023-12-22T06:29:53;9.83;;;1.63;;
41755;SDS011;27435;48.480;9.258;2023-12-22T06:32:20;10.50;;;1.80;;
41755;SDS011;27435;48.480;9.258;2023-12-22T06:34:46;6.07;;;1.33;;
41755;SDS011;27435;48.480;9.258;2023-12-22T06:37:12;11.53;;;1.47;;
41755;SDS011;27435;48.480;9.258;2023-12-22T06:39:37;6.33;;;0.93;;
41755;SDS011;27435;48.480;9.258;2023-12-22T06:42:03;13.97;;;1.30;;
41755;SDS011;27435;48.480;9.258;2023-12-22T06:44:31;4.17;;;1.10;;
41755;SDS011;27435;48.480;9.258;2023-12-22T06:46:57;8.03;;;1.53;;
41755;SDS011;27435;48.480;9.258;2023-12-22T06:49:22;18.77;;;2.07;;
41755;SDS011;27435;48.480;9.258;2023-12-22T06:51:48;9.80;;;1.50;;
41755;SDS011;27435;48.480;9.258;2023-12-22T06:54:13;8.50;;;1.20;;
41755;SDS011;27435;48.480;9.258;2023-12-22T06:56:39;8.30;;;1.43;;
41755;SDS011;27435;48.480;9.258;2023-12-22T06:59:05;12.13;;;2.40;;
41755;SDS011;27435;48.480;9.258;2023-12-22T07:01:32;13.07;;;1.70;;
41755;SDS011;27435;48.480;9.258;2023-12-22T07:03:57;10.90;;;1.67;;
41755;SDS011;27435;48.480;9.258;2023-12-22T07:06:29;8.17;;;1.33;;
41755;SDS011;27435;48.480;9.258;2023-12-22T07:11:41;8.70;;;1.17;;
41755;SDS011;27435;48.480;9.258;2023-12-22T07:14:07;6.90;;;1.90;;
41755;SDS011;27435;48.480;9.258;2023-12-22T07:16:33;9.30;;;1.50;;
41755;SDS011;27435;48.480;9.258;2023-12-22T07:19:00;11.50;;;1.40;;
41755;SDS011;27435;48.480;9.258;2023-12-22T07:21:26;9.90;;;2.07;;
41755;SDS011;27435;48.480;9.258;2023-12-22T07:23:51;7.33;;;2.10;;
41755;SDS011;27435;48.480;9.258;2023-12-22T07:26:17;13.00;;;2.17;;
41755;SDS011;27435;48.480;9.258;2023-12-22T07:28:43;12.10;;;2.47;;
41755;SDS011;27435;48.480;9.258;2023-12-22T07:31:08;8.27;;;1.30;;
41755;SDS011;27435;48.480;9.258;2023-12-22T07:33:34;6.03;;;1.50;;
41755;SDS011;27435;48.480;9.258;2023-12-22T07:36:00;8.20;;;2.50;;
41755;SDS011;27435;48.480;9.258;2023-12-22T07:38:25;12.03;;;2.50;;
41755;SDS011;27435;48.480;9.258;2023-12-22T07:40:52;10.90;;;1.70;;
41755;SDS011;27435;48.480;9.258;2023-12-22T07:43:17;11.93;;;2.93;;
41755;SDS011;27435;48.480;9.258;2023-12-22T07:45:43;7.53;;;1.73;;
41755;SDS011;27435;48.480;9.258;2023-12-22T07:48:08;9.87;;;1.40;;
41755;SDS011;27435;48.480;9.258;2023-12-22T07:50:34;6.77;;;1.13;;
41755;SDS011;27435;48.480;9.258;2023-12-22T07:53:00;7.70;;;1.33;;
41755;SDS011;27435;48.480;9.258;2023-12-22T07:55:26;8.13;;;1.87;;
41755;SDS011;27435;48.480;9.258;2023-12-22T07:57:51;8.37;;;1.97;;
41755;SDS011;27435;48.480;9.258;2023-12-22T08:00:17;8.70;;;2.07;;
41755;SDS011;27435;48.480;9.258;2023-12-22T08:02:43;8.73;;;1.83;;
41755;SDS011;27435;48.480;9.258;2023-12-22T08:05:09;8.73;;;2.57;;
41755;SDS011;27435;48.480;9.258;2023-12-22T08:07:35;5.30;;;1.60;;
41755;SDS011;27435;48.480;9.258;2023-12-22T08:10:01;6.53;;;1.10;;
41755;SDS011;27435;48.480;9.258;2023-12-22T08:12:27;7.03;;;1.50;;
41755;SDS011;27435;48.480;9.258;2023-12-22T08:14:53;9.73;;;1.73;;
41755;SDS011;27435;48.480;9.258;2023-12-22T08:17:19;3.97;;;1.13;;
41755;SDS011;27435;48.480;9.258;2023-12-22T08:19:45;9.77;;;1.73;;
41755;SDS011;27435;48.480;9.258;2023-12-22T08:22:10;8.23;;;1.47;;
41755;SDS011;27435;48.480;9.258;2023-12-22T08:24:38;11.70;;;1.93;;
41755;SDS011;27435;48.480;9.258;2023-12-22T08:27:06;3.33;;;1.00;;
41755;SDS011;27435;48.480;9.258;2023-12-22T08:29:32;9.63;;;1.67;;
41755;SDS011;27435;48.480;9.258;2023-12-22T08:31:58;7.37;;;1.93;;
41755;SDS011;27435;48.480;9.258;2023-12-22T08:34:25;11.50;;;2.00;;
41755;SDS011;27435;48.480;9.258;2023-12-22T08:36:51;7.33;;;1.80;;
41755;SDS011;27435;48.480;9.258;2023-12-22T08:39:17;10.03;;;1.50;;
41755;SDS011;27435;48.480;9.258;2023-12-22T08:41:42;10.67;;;2.10;;
41755;SDS011;27435;48.480;9.258;2023-12-22T08:44:08;5.97;;;1.57;;
41755;SDS011;27435;48.480;9.258;2023-12-22T08:46:34;8.17;;;1.67;;
41755;SDS011;27435;48.480;9.258;2023-12-22T08:49:00;11.33;;;2.10;;
41755;SDS011;27435;48.480;9.258;2023-12-22T08:51:26;8.43;;;2.63;;
41755;SDS011;27435;48.480;9.258;2023-12-22T08:53:53;5.17;;;1.07;;
41755;SDS011;27435;48.480;9.258;2023-12-22T08:56:22;16.53;;;2.30;;
41755;SDS011;27435;48.480;9.258;2023-12-22T08:58:48;10.57;;;1.93;;
41755;SDS011;27435;48.480;9.258;2023-12-22T09:01:16;5.50;;;1.40;;
41755;SDS011;27435;48.480;9.258;2023-12-22T09:03:43;6.73;;;1.23;;
41755;SDS011;27435;48.480;9.258;2023-12-22T09:06:14;13.23;;;2.10;;
41755;SDS011;27435;48.480;9.258;2023-12-22T09:08:41;9.17;;;1.60;;
41755;SDS011;27435;48.480;9.258;2023-12-22T09:11:07;5.17;;;1.10;;
41755;SDS011;27435;48.480;9.258;2023-12-22T09:13:33;6.70;;;1.83;;
41755;SDS011;27435;48.480;9.258;2023-12-22T09:16:01;9.20;;;2.13;;
41755;SDS011;27435;48.480;9.258;2023-12-22T09:18:27;11.27;;;1.47;;
41755;SDS011;27435;48.480;9.258;2023-12-22T09:20:53;7.83;;;1.57;;
41755;SDS011;27435;48.480;9.258;2023-12-22T09:23:19;7.57;;;2.07;;
41755;SDS011;27435;48.480;9.258;2023-12-22T09:25:46;8.87;;;1.93;;
41755;SDS011;27435;48.480;9.258;2023-12-22T09:28:12;5.87;;;1.40;;
41755;SDS011;27435;48.480;9.258;2023-12-22T09:30:37;5.63;;;1.37;;
41755;SDS011;27435;48.480;9.258;2023-12-22T09:33:03;7.37;;;2.10;;
41755;SDS011;27435;48.480;9.258;2023-12-22T09:35:29;11.43;;;1.80;;
41755;SDS011;27435;48.480;9.258;2023-12-22T09:37:55;5.07;;;1.30;;
41755;SDS011;27435;48.480;9.258;2023-12-22T09:40:20;9.23;;;1.10;;
41755;SDS011;27435;48.480;9.258;2023-12-22T09:42:47;8.87;;;1.67;;
41755;SDS011;27435;48.480;9.258;2023-12-22T09:45:13;4.90;;;1.43;;
41755;SDS011;27435;48.480;9.258;2023-12-22T09:47:44;10.20;;;1.73;;
41755;SDS011;27435;48.480;9.258;2023-12-22T09:50:10;9.17;;;2.00;;
41755;SDS011;27435;48.480;9.258;2023-12-22T09:52:38;7.93;;;1.83;;
41755;SDS011;27435;48.480;9.258;2023-12-22T09:55:07;10.07;;;2.07;;
41755;SDS011;27435;48.480;9.258;2023-12-22T09:57:33;6.90;;;1.20;;
41755;SDS011;27435;48.480;9.258;2023-12-22T10:00:00;10.83;;;1.80;;
41755;SDS011;27435;48.480;9.258;2023-12-22T10:02:31;8.33;;;1.30;;
41755;SDS011;27435;48.480;9.258;2023-12-22T10:04:58;6.87;;;1.63;;
41755;SDS011;27435;48.480;9.258;2023-12-22T10:07:25;18.50;;;2.27;;
41755;SDS011;27435;48.480;9.258;2023-12-22T10:09:51;9.90;;;1.73;;
41755;SDS011;27435;48.480;9.258;2023-12-22T10:12:20;8.20;;;1.97;;
41755;SDS011;27435;48.480;9.258;2023-12-22T10:14:47;4.73;;;1.53;;
41755;SDS011;27435;48.480;9.258;2023-12-22T10:17:15;11.67;;;2.77;;
41755;SDS011;27435;48.480;9.258;2023-12-22T10:19:42;6.30;;;1.40;;
41755;SDS011;27435;48.480;9.258;2023-12-22T10:22:08;5.10;;;1.23;;
41755;SDS011;27435;48.480;9.258;2023-12-22T10:27:09;6.80;;;1.83;;
41755;SDS011;27435;48.480;9.258;2023-12-22T10:29:35;7.97;;;1.40;;
41755;SDS011;27435;48.480;9.258;2023-12-22T10:32:02;15.13;;;1.80;;
41755;SDS011;27435;48.480;9.258;2023-12-22T10:34:29;8.03;;;1.17;;
41755;SDS011;27435;48.480;9.258;2023-12-22T10:36:55;7.63;;;2.07;;
41755;SDS011;27435;48.480;9.258;2023-12-22T10:39:21;10.47;;;1.53;;
41755;SDS011;27435;48.480;9.258;2023-12-22T10:41:47;11.57;;;2.43;;
41755;SDS011;27435;48.480;9.258;2023-12-22T10:44:16;13.17;;;2.33;;
41755;SDS011;27435;48.480;9.258;2023-12-22T10:46:42;11.37;;;2.40;;
41755;SDS011;27435;48.480;9.258;2023-12-22T10:49:08;8.87;;;2.00;;
41755;SDS011;27435;48.480;9.258;2023-12-22T10:51:34;10.10;;;1.40;;
41755;SDS011;27435;48.480;9.258;2023-12-22T10:54:00;17.60;;;2.07;;
41755;SDS011;27435;48.480;9.258;2023-12-22T10:56:28;9.50;;;2.57;;
41755;SDS011;27435;48.480;9.258;2023-12-22T10:58:55;7.57;;;1.53;;
41755;SDS011;27435;48.480;9.258;2023-12-22T11:01:21;6.10;;;1.40;;
41755;SDS011;27435;48.480;9.258;2023-12-22T11:03:50;10.73;;;2.17;;
41755;SDS011;27435;48.480;9.258;2023-12-22T11:06:17;7.30;;;1.67;;
41755;SDS011;27435;48.480;9.258;2023-12-22T11:08:44;9.83;;;2.03;;
41755;SDS011;27435;48.480;9.258;2023-12-22T11:11:16;10.63;;;2.10;;
41755;SDS011;27435;48.480;9.258;2023-12-22T11:13:50;7.30;;;1.97;;
41755;SDS011;27435;48.480;9.258;2023-12-22T11:16:17;17.40;;;2.70;;
41755;SDS011;27435;48.480;9.258;2023-12-22T11:18:43;6.83;;;1.57;;
41755;SDS011;27435;48.480;9.258;2023-12-22T11:21:09;8.67;;;1.80;;
41755;SDS011;27435;48.480;9.258;2023-12-22T11:23:37;15.40;;;2.47;;
41755;SDS011;27435;48.480;9.258;2023-12-22T11:26:04;12.77;;;2.10;;
41755;SDS011;27435;48.480;9.258;2023-12-22T11:28:32;12.23;;;2.03;;
41755;SDS011;27435;48.480;9.258;2023-12-22T11:30:58;9.67;;;2.07;;
41755;SDS011;27435;48.480;9.258;2023-12-22T11:33:26;9.10;;;2.17;;
41755;SDS011;27435;48.480;9.258;2023-12-22T11:35:54;8.50;;;2.20;;
41755;SDS011;27435;48.480;9.258;2023-12-22T11:38:21;6.00;;;1.40;;
41755;SDS011;27435;48.480;9.258;2023-12-22T11:40:47;12.37;;;1.93;;
41755;SDS011;27435;48.480;9.258;2023-12-22T11:43:17;10.97;;;1.80;;
41755;SDS011;27435;48.480;9.258;2023-12-22T11:45:44;8.20;;;1.30;;
41755;SDS011;27435;48.480;9.258;2023-12-22T11:48:10;8.03;;;1.67;;
41755;SDS011;27435;48.480;9.258;2023-12-22T11:50:36;7.37;;;2.07;;
41755;SDS011;27435;48.480;9.258;2023-12-22T11:53:18;6.33;;;1.50;;
41755;SDS011;27435;48.480;9.258;2023-12-22T11:58:39;5.22;;;1.30;;
41755;SDS011;27435;48.480;9.258;2023-12-22T12:01:16;5.17;;;1.53;;
41755;SDS011;27435;48.480;9.258;2023-12-22T12:03:50;3.87;;;0.93;;
41755;SDS011;27435;48.480;9.258;2023-12-22T12:08:52;5.05;;;0.90;;
41755;SDS011;27435;48.480;9.258;2023-12-22T12:11:18;6.93;;;0.80;;
41755;SDS011;27435;48.480;9.258;2023-12-22T12:13:45;3.17;;;0.90;;
41755;SDS011;27435;48.480;9.258;2023-12-22T12:16:12;5.67;;;0.90;;
41755;SDS011;27435;48.480;9.258;2023-12-22T12:18:39;4.80;;;0.87;;
41755;SDS011;27435;48.480;9.258;2023-12-22T12:21:08;3.63;;;0.80;;
41755;SDS011;27435;48.480;9.258;2023-12-22T12:23:37;3.30;;;0.80;;
41755;SDS011;27435;48.480;9.258;2023-12-22T12:26:05;5.00;;;0.73;;
41755;SDS011;27435;48.480;9.258;2023-12-22T12:28:36;5.33;;;1.10;;
41755;SDS011;27435;48.480;9.258;2023-12-22T12:31:05;4.53;;;1.00;;
41755;SDS011;27435;48.480;9.258;2023-12-22T12:33:33;2.07;;;0.87;;
41755;SDS011;27435;48.480;9.258;2023-12-22T12:36:00;4.37;;;1.03;;
41755;SDS011;27435;48.480;9.258;2023-12-22T12:41:22;4.43;;;0.83;;
41755;SDS011;27435;48.480;9.258;2023-12-22T12:44:11;3.47;;;0.97;;
41755;SDS011;27435;48.480;9.258;2023-12-22T12:46:38;3.20;;;0.80;;
41755;SDS011;27435;48.480;9.258;2023-12-22T12:49:08;3.53;;;0.77;;
41755;SDS011;27435;48.480;9.258;2023-12-22T12:51:42;4.37;;;0.97;;
41755;SDS011;27435;48.480;9.258;2023-12-22T12:54:10;2.37;;;0.90;;
41755;SDS011;27435;48.480;9.258;2023-12-22T12:56:40;2.87;;;0.97;;
41755;SDS011;27435;48.480;9.258;2023-12-22T12:59:16;4.67;;;1.30;;
41755;SDS011;27435;48.480;9.258;2023-12-22T13:01:45;4.47;;;1.00;;
41755;SDS011;27435;48.480;9.258;2023-12-22T13:04:12;2.63;;;1.23;;
41755;SDS011;27435;48.480;9.258;2023-12-22T13:06:45;3.13;;;1.00;;
41755;SDS011;27435;48.480;9.258;2023-12-22T13:09:11;1.50;;;0.50;;
41755;SDS011;27435;48.480;9.258;2023-12-22T13:11:40;3.70;;;0.63;;
41755;SDS011;27435;48.480;9.258;2023-12-22T13:14:11;1.90;;;0.60;;
41755;SDS011;27435;48.480;9.258;2023-12-22T13:16:37;0.73;;;0.33;;
41755;SDS011;27435;48.480;9.258;2023-12-22T13:19:04;1.60;;;0.80;;
41755;SDS011;27435;48.480;9.258;2023-12-22T13:21:30;0.83;;;0.50;;
41755;SDS011;27435;48.480;9.258;2023-12-22T13:24:12;3.53;;;0.70;;
41755;SDS011;27435;48.480;9.258;2023-12-22T13:26:39;1.00;;;0.40;;
41755;SDS011;27435;48.480;9.258;2023-12-22T13:29:06;0.67;;;0.40;;
41755;SDS011;27435;48.480;9.258;2023-12-22T13:31:32;1.33;;;0.30;;
41755;SDS011;27435;48.480;9.258;2023-12-22T13:34:00;1.13;;;0.40;;
41755;SDS011;27435;48.480;9.258;2023-12-22T13:36:26;1.23;;;0.50;;
41755;SDS011;27435;48.480;9.258;2023-12-22T13:38:52;1.13;;;0.47;;
41755;SDS011;27435;48.480;9.258;2023-12-22T13:41:18;0.67;;;0.20;;
41755;SDS011;27435;48.480;9.258;2023-12-22T13:43:44;1.57;;;0.30;;
41755;SDS011;27435;48.480;9.258;2023-12-22T13:46:10;0.63;;;0.20;;
41755;SDS011;27435;48.480;9.258;2023-12-22T13:48:37;0.70;;;0.40;;
41755;SDS011;27435;48.480;9.258;2023-12-22T13:51:03;1.07;;;0.40;;
41755;SDS011;27435;48.480;9.258;2023-12-22T13:53:29;0.67;;;0.30;;
41755;SDS011;27435;48.480;9.258;2023-12-22T13:55:58;0.70;;;0.20;;
41755;SDS011;27435;48.480;9.258;2023-12-22T13:58:24;0.80;;;0.30;;
41755;SDS011;27435;48.480;9.258;2023-12-22T14:00:51;2.27;;;0.23;;
41755;SDS011;27435;48.480;9.258;2023-12-22T14:03:17;0.60;;;0.30;;
41755;SDS011;27435;48.480;9.258;2023-12-22T14:05:46;1.23;;;0.40;;
41755;SDS011;27435;48.480;9.258;2023-12-22T14:08:17;2.37;;;0.60;;
41755;SDS011;27435;48.480;9.258;2023-12-22T14:10:46;2.33;;;0.60;;
41755;SDS011;27435;48.480;9.258;2023-12-22T14:13:16;0.30;;;0.20;;
41755;SDS011;27435;48.480;9.258;2023-12-22T14:15:42;0.20;;;0.13;;
41755;SDS011;27435;48.480;9.258;2023-12-22T14:18:08;0.30;;;0.20;;
41755;SDS011;27435;48.480;9.258;2023-12-22T14:20:34;0.97;;;0.40;;
41755;SDS011;27435;48.480;9.258;2023-12-22T14:23:00;0.57;;;0.30;;
41755;SDS011;27435;48.480;9.258;2023-12-22T14:25:26;1.93;;;0.40;;
41755;SDS011;27435;48.480;9.258;2023-12-22T14:27:52;0.53;;;0.20;;
41755;SDS011;27435;48.480;9.258;2023-12-22T14:30:22;0.47;;;0.30;;
41755;SDS011;27435;48.480;9.258;2023-12-22T14:32:48;3.70;;;1.87;;
41755;SDS011;27435;48.480;9.258;2023-12-22T14:35:14;1.63;;;0.93;;
41755;SDS011;27435;48.480;9.258;2023-12-22T14:37:39;8.43;;;4.03;;
41755;SDS011;27435;48.480;9.258;2023-12-22T14:40:05;1.23;;;0.60;;
41755;SDS011;27435;48.480;9.258;2023-12-22T14:42:31;1.80;;;0.70;;
41755;SDS011;27435;48.480;9.258;2023-12-22T14:44:57;1.70;;;0.90;;
41755;SDS011;27435;48.480;9.258;2023-12-22T14:47:23;1.23;;;0.60;;
41755;SDS011;27435;48.480;9.258;2023-12-22T14:49:48;1.40;;;0.50;;
41755;SDS011;27435;48.480;9.258;2023-12-22T14:52:14;2.77;;;0.60;;
41755;SDS011;27435;48.480;9.258;2023-12-22T14:54:40;0.60;;;0.30;;
41755;SDS011;27435;48.480;9.258;2023-12-22T14:57:06;1.67;;;0.60;;